This is the latest recevied weather packets stored in our database for station/object KD4KKF. If no packets are shown the sender has not sent any weather packets the latest 1 day(s).
| Time | Temp. | Humidity | Pressure | Rain* | Wind** | Luminosity | Snow |
|---|---|---|---|---|---|---|---|
| 1836274719 | 19.44° C | 99% | 1016.9 hPa | 0 mm | 0 m/s | 0 W/m² | - |
| 1836274572 | 19.44° C | 99% | 1016.9 hPa | 0 mm | 0 m/s | 0 W/m² | - |
| 1836274418 | 19.44° C | 99% | 1016.8 hPa | 0 mm | 0 m/s | 0 W/m² | - |
| 1836274272 | 19.44° C | 99% | 1016.7 hPa | 0 mm | 0 m/s | 0 W/m² | - |
| 1836274116 | 19.44° C | 99% | 1016.8 hPa | 0 mm | 0 m/s | 0 W/m² | - |
| 1778051369 | 21.11° C | 86% | 1009 hPa | 0 mm | 1.34 m/s, 99° | 0 W/m² | - |
| 1778051066 | 21.11° C | 86% | 1009 hPa | 0 mm | 1.79 m/s, 116° | 0 W/m² | - |
| 1778050764 | 21.11° C | 86% | 1009 hPa | 0 mm | 1.79 m/s, 217° | 0 W/m² | - |
| 1778050461 | 21.11° C | 86% | 1009.1 hPa | 0 mm | 3.13 m/s, 272° | 0 W/m² | - |
| 1778050157 | 21.11° C | 86% | 1009.1 hPa | 0 mm | 0.89 m/s, 103° | 0 W/m² | - |
| 1778049853 | 21.11° C | 85% | 1008.9 hPa | 0 mm | 0.45 m/s, 139° | 0 W/m² | - |
| 1778049550 | 21.11° C | 85% | 1009.3 hPa | 0 mm | 1.34 m/s, 139° | 0 W/m² | - |
| 1778049248 | 21.11° C | 85% | 1009 hPa | 0 mm | 1.34 m/s, 74° | 0 W/m² | - |
| 1778048946 | 21.67° C | 85% | 1008.9 hPa | 0 mm | 0.89 m/s, 134° | 0 W/m² | - |
| 1778048644 | 21.67° C | 84% | 1009.4 hPa | 0 mm | 1.34 m/s, 229° | 0 W/m² | - |
| 1778048340 | 21.67° C | 84% | 1009.7 hPa | 0 mm | 0.45 m/s, 224° | 0 W/m² | - |
| 1778048036 | 21.67° C | 84% | 1009.4 hPa | 0 mm | 0.89 m/s, 193° | 0 W/m² | - |
| 1778047735 | 21.67° C | 84% | 1009.3 hPa | 0 mm | 1.34 m/s, 211° | 0 W/m² | - |
| 1778047432 | 21.67° C | 84% | 1009.4 hPa | 0 mm | 0.45 m/s, 156° | 0 W/m² | - |
| 1778047128 | 21.67° C | 83% | 1009.7 hPa | 0 mm | 2.24 m/s, 196° | 0 W/m² | - |
| 1778046826 | 21.67° C | 83% | 1009.4 hPa | 0 mm | 1.34 m/s, 201° | 0 W/m² | - |
| 1778046523 | 21.67° C | 83% | 1009.5 hPa | 0 mm | 0.45 m/s, 109° | 0 W/m² | - |
| 1778046220 | 21.67° C | 83% | 1009.8 hPa | 0 mm | 1.34 m/s, 193° | 0 W/m² | - |
| 1778045916 | 21.67° C | 82% | 1009.9 hPa | 0 mm | 3.13 m/s, 289° | 0 W/m² | - |
| 1778045615 | 21.67° C | 82% | 1010 hPa | 0 mm | 1.79 m/s, 281° | 0 W/m² | - |
* Rain latest hour (hover to see other rain measurements)
** Current wind speed in m/s (hover to see current wind gust speed)